Time;durP1;ratioP1;P1;durP2;ratioP2;P2;SDS_P1;SDS_P2;PMS_P1;PMS_P2;Temp;Humidity;BMP_temperature;BMP_pressure;BME280_temperature;BME280_humidity;BME280_pressure;Samples;Min_cycle;Max_cycle;Signal;HPM_P1;HPM_P2
2022/03/15 00:02:05;;;;;;;16.95;8.45;;;5.00;99.90;;;;;;5085101;27;20035;-78
2022/03/15 00:04:31;;;;;;;16.20;8.20;;;5.00;99.90;;;;;;5119136;27;20039;-78
2022/03/15 00:06:58;;;;;;;16.42;8.40;;;5.00;99.90;;;;;;5118164;27;20039;-78
2022/03/15 00:09:24;;;;;;;24.83;12.80;;;5.00;99.90;;;;;;5102210;27;20525;-78
2022/03/15 00:11:51;;;;;;;17.70;9.68;;;5.10;99.90;;;;;;5102038;27;20432;-78
2022/03/15 00:14:17;;;;;;;14.75;8.00;;;5.40;99.90;;;;;;5118865;27;20482;-79
2022/03/15 00:16:43;;;;;;;23.10;10.80;;;5.00;99.90;;;;;;5101796;27;20042;-79
2022/03/15 00:19:09;;;;;;;18.52;9.45;;;5.00;99.90;;;;;;5136148;27;20047;-79
2022/03/15 00:21:35;;;;;;;20.25;10.50;;;5.00;99.90;;;;;;5083951;27;20232;-79
2022/03/15 00:24:04;;;;;;;16.08;8.30;;;5.00;99.90;;;;;;5101948;27;20043;-79
2022/03/15 00:26:29;;;;;;;18.33;9.85;;;5.10;99.90;;;;;;5085234;27;20489;-79
2022/03/15 00:28:55;;;;;;;24.17;12.50;;;5.00;99.90;;;;;;5101601;27;20039;-79
2022/03/15 00:31:21;;;;;;;20.45;9.90;;;5.00;99.90;;;;;;5135521;27;20046;-79
2022/03/15 00:33:47;;;;;;;32.65;14.18;;;5.00;99.90;;;;;;5135547;27;20064;-79
2022/03/15 00:36:12;;;;;;;22.45;12.20;;;5.10;99.90;;;;;;5084358;27;20046;-79
2022/03/15 00:38:41;;;;;;;34.13;16.88;;;5.00;99.90;;;;;;5083341;27;20427;-79
2022/03/15 00:41:08;;;;;;;21.35;12.70;;;5.00;99.90;;;;;;5101317;27;20039;-79
2022/03/15 00:43:34;;;;;;;26.00;13.18;;;5.10;99.90;;;;;;5100875;27;20117;-79
2022/03/15 00:46:00;;;;;;;17.48;10.27;;;5.00;99.90;;;;;;5100877;27;20122;-79
2022/03/15 00:48:26;;;;;;;38.47;16.73;;;5.00;99.90;;;;;;5117944;27;20046;-79
2022/03/15 00:50:53;;;;;;;24.83;12.18;;;5.00;99.90;;;;;;5118051;27;20050;-79
2022/03/15 00:53:18;;;;;;;28.70;12.65;;;5.00;99.90;;;;;;5100285;27;20031;-79
2022/03/15 00:55:44;;;;;;;27.48;14.75;;;5.00;99.90;;;;;;5101389;27;20034;-79
2022/03/15 00:58:11;;;;;;;22.00;11.32;;;5.10;99.90;;;;;;5118041;27;20043;-79
2022/03/15 01:00:36;;;;;;;21.23;11.20;;;5.00;99.90;;;;;;5117970;27;20043;-79
2022/03/15 01:03:05;;;;;;;23.58;12.15;;;5.00;99.90;;;;;;5117607;27;20126;-79
2022/03/15 01:05:31;;;;;;;17.83;9.95;;;5.00;99.90;;;;;;5118185;27;20547;-79
2022/03/15 01:07:57;;;;;;;19.60;11.00;;;5.00;99.90;;;;;;5096382;28;20052;-79
2022/03/15 01:10:23;;;;;;;21.83;10.25;;;5.10;99.90;;;;;;5080452;28;20032;-79
2022/03/15 01:12:49;;;;;;;18.35;9.35;;;5.10;99.90;;;;;;5087204;27;20427;-79
2022/03/15 01:15:16;;;;;;;23.23;11.57;;;5.00;99.90;;;;;;5135189;27;20478;-79
2022/03/15 01:17:42;;;;;;;22.25;11.02;;;5.00;99.90;;;;;;5134654;27;20051;-79
2022/03/15 01:20:08;;;;;;;20.92;10.32;;;5.10;99.90;;;;;;5100932;27;20146;-79
2022/03/15 01:22:34;;;;;;;19.38;11.43;;;5.00;99.90;;;;;;5117057;27;20490;-79
2022/03/15 01:25:00;;;;;;;22.48;10.75;;;5.00;99.90;;;;;;5117646;27;20039;-79
2022/03/15 01:27:26;;;;;;;17.25;9.43;;;5.00;99.90;;;;;;5100456;27;20501;-79
2022/03/15 01:29:52;;;;;;;20.30;11.63;;;5.00;99.90;;;;;;5117404;27;20035;-79
2022/03/15 01:32:20;;;;;;;21.30;12.32;;;5.20;99.90;;;;;;5117386;27;20390;-79
2022/03/15 01:34:46;;;;;;;22.35;11.43;;;4.90;99.90;;;;;;5134832;27;20367;-79
2022/03/15 01:37:11;;;;;;;20.13;11.27;;;4.80;99.90;;;;;;5134223;27;20054;-79
2022/03/15 01:39:37;;;;;;;24.27;12.48;;;4.70;99.90;;;;;;5117297;27;20038;-79
2022/03/15 01:42:04;;;;;;;18.52;9.88;;;4.70;99.90;;;;;;5117040;27;20035;-79
2022/03/15 01:44:33;;;;;;;27.52;12.63;;;4.70;99.90;;;;;;5116975;27;20047;-79
2022/03/15 01:46:59;;;;;;;17.88;9.90;;;4.70;99.90;;;;;;5133452;27;20044;-79
2022/03/15 01:49:24;;;;;;;17.13;9.45;;;4.60;99.90;;;;;;5116665;27;20031;-79
2022/03/15 01:51:51;;;;;;;17.45;9.43;;;4.60;99.90;;;;;;5115877;27;20035;-79
2022/03/15 01:54:17;;;;;;;17.20;8.77;;;4.60;99.90;;;;;;5134152;27;20042;-79
2022/03/15 01:56:43;;;;;;;16.15;8.55;;;4.70;99.90;;;;;;5134068;27;20424;-79
2022/03/15 01:59:14;;;;;;;17.08;9.00;;;4.70;99.90;;;;;;5134220;27;20513;-79
2022/03/15 02:01:41;;;;;;;14.23;8.50;;;4.70;99.90;;;;;;5131045;27;20398;-79
2022/03/15 02:04:11;;;;;;;17.83;8.60;;;4.70;99.90;;;;;;5096278;28;20039;-79
2022/03/15 02:06:38;;;;;;;15.98;8.50;;;4.80;99.90;;;;;;5095278;28;20048;-79
2022/03/15 02:09:08;;;;;;;16.73;8.57;;;4.80;99.90;;;;;;5095978;28;20047;-79
2022/03/15 02:11:35;;;;;;;13.93;8.35;;;4.80;99.90;;;;;;5112767;28;20043;-79
2022/03/15 02:14:02;;;;;;;16.92;8.48;;;4.80;99.90;;;;;;5096582;28;20540;-79
2022/03/15 02:16:27;;;;;;;16.52;8.48;;;4.80;99.90;;;;;;5096239;28;20039;-79
2022/03/15 02:18:55;;;;;;;14.95;8.35;;;4.80;99.90;;;;;;5062686;28;20405;-79
2022/03/15 02:21:21;;;;;;;14.52;7.85;;;4.80;99.90;;;;;;5095666;28;20043;-79
2022/03/15 02:23:46;;;;;;;15.00;7.78;;;4.80;99.90;;;;;;5096374;28;20146;-79
2022/03/15 02:26:13;;;;;;;12.80;7.40;;;4.80;99.90;;;;;;5078715;28;20036;-79
2022/03/15 02:28:39;;;;;;;12.88;7.10;;;4.70;99.90;;;;;;5095690;28;20058;-79
2022/03/15 02:31:05;;;;;;;14.85;7.45;;;4.70;99.90;;;;;;5112414;28;20040;-79
2022/03/15 02:33:30;;;;;;;12.68;7.32;;;4.70;99.90;;;;;;5078608;28;20043;-79
2022/03/15 02:35:56;;;;;;;12.57;6.93;;;4.70;99.90;;;;;;5112555;28;20035;-79
2022/03/15 02:38:22;;;;;;;12.35;6.93;;;4.80;99.90;;;;;;5094642;28;20040;-79
2022/03/15 02:40:47;;;;;;;13.20;7.18;;;4.70;99.90;;;;;;5112330;28;20120;-79
2022/03/15 02:43:13;;;;;;;12.15;6.88;;;4.60;99.90;;;;;;5078456;28;20040;-79
2022/03/15 02:45:39;;;;;;;12.40;6.60;;;4.60;99.90;;;;;;5112574;28;20192;-79
2022/03/15 02:48:05;;;;;;;11.93;6.85;;;4.50;99.90;;;;;;5078416;28;20051;-79
2022/03/15 02:50:30;;;;;;;13.52;6.68;;;4.50;99.90;;;;;;5112471;28;20069;-79
2022/03/15 02:52:56;;;;;;;14.05;8.15;;;4.40;99.90;;;;;;5094540;28;20065;-79
2022/03/15 02:55:22;;;;;;;26.15;13.75;;;4.50;99.90;;;;;;5095276;28;20040;-79
2022/03/15 02:57:48;;;;;;;23.88;13.82;;;4.40;99.90;;;;;;5095416;28;20429;-79
2022/03/15 03:00:17;;;;;;;26.15;13.95;;;4.30;99.90;;;;;;5082952;28;20061;-79
2022/03/15 03:02:43;;;;;;;13.15;8.13;;;4.20;99.90;;;;;;5116573;28;20390;-79
2022/03/15 03:05:09;;;;;;;14.45;8.32;;;4.10;99.90;;;;;;5099427;28;20127;-79
2022/03/15 03:07:35;;;;;;;22.73;12.90;;;4.20;99.90;;;;;;5098192;28;20487;-79
2022/03/15 03:10:02;;;;;;;15.15;8.60;;;4.10;99.90;;;;;;5119926;27;20513;-79
2022/03/15 03:12:31;;;;;;;13.13;8.00;;;4.20;99.90;;;;;;5102747;27;20118;-79
2022/03/15 03:14:57;;;;;;;13.00;7.95;;;4.10;99.90;;;;;;5086564;27;20047;-79
2022/03/15 03:17:24;;;;;;;21.83;12.25;;;4.10;99.90;;;;;;5102403;27;20073;-79
2022/03/15 03:19:50;;;;;;;13.52;8.27;;;4.10;99.90;;;;;;5102191;27;20051;-79
2022/03/15 03:22:16;;;;;;;16.17;7.90;;;4.00;99.90;;;;;;5084882;27;20474;-79
2022/03/15 03:24:42;;;;;;;11.63;7.13;;;4.00;99.90;;;;;;5128845;27;20051;-79
2022/03/15 03:27:10;;;;;;;12.00;7.68;;;4.30;99.90;;;;;;5119376;27;20039;-79
2022/03/15 03:29:36;;;;;;;12.38;7.80;;;4.10;99.90;;;;;;5085828;27;20211;-79
2022/03/15 03:32:02;;;;;;;12.35;7.53;;;4.10;99.90;;;;;;5085495;27;20035;-79
2022/03/15 03:34:28;;;;;;;14.13;7.45;;;4.10;99.90;;;;;;5119595;27;20038;-78
2022/03/15 03:36:53;;;;;;;12.93;7.57;;;4.40;99.90;;;;;;5101181;27;20074;-78
2022/03/15 03:39:19;;;;;;;13.23;7.35;;;4.10;99.90;;;;;;5119169;27;20043;-78
2022/03/15 03:41:45;;;;;;;14.40;8.57;;;4.20;99.90;;;;;;5101943;27;20043;-78
2022/03/15 03:44:10;;;;;;;13.20;7.90;;;4.20;99.90;;;;;;5085301;27;20398;-78
2022/03/15 03:46:36;;;;;;;13.02;7.72;;;4.20;99.90;;;;;;5101812;27;20039;-78
2022/03/15 03:49:02;;;;;;;11.60;7.30;;;4.10;99.90;;;;;;5102112;27;20474;-78
2022/03/15 03:51:27;;;;;;;11.57;7.50;;;4.10;99.90;;;;;;5100624;27;20039;-78
2022/03/15 03:53:53;;;;;;;12.18;7.55;;;4.10;99.90;;;;;;5119004;27;20478;-78
2022/03/15 03:56:19;;;;;;;11.77;7.68;;;4.20;99.90;;;;;;5118844;27;20114;-78
2022/03/15 03:58:45;;;;;;;10.52;7.20;;;4.20;99.90;;;;;;5084964;27;20091;-78
2022/03/15 04:01:10;;;;;;;11.68;7.22;;;4.30;99.90;;;;;;5118939;27;20058;-78
2022/03/15 04:03:36;;;;;;;11.15;7.35;;;4.20;99.90;;;;;;5118502;27;20043;-78
2022/03/15 04:06:03;;;;;;;11.63;7.53;;;4.30;99.90;;;;;;5101535;27;20549;-78
2022/03/15 04:08:29;;;;;;;12.80;8.05;;;4.30;99.90;;;;;;5100383;27;20130;-78
2022/03/15 04:10:54;;;;;;;12.55;8.13;;;4.30;99.90;;;;;;5118102;27;20127;-78
2022/03/15 04:13:20;;;;;;;12.10;7.82;;;4.30;99.90;;;;;;5101344;27;20042;-78
2022/03/15 04:15:47;;;;;;;12.25;8.57;;;4.30;99.90;;;;;;5101448;27;20050;-78
2022/03/15 04:18:13;;;;;;;19.15;11.30;;;4.30;99.90;;;;;;5118247;27;20050;-78
2022/03/15 04:20:40;;;;;;;13.25;8.38;;;4.30;99.90;;;;;;5101277;27;20039;-78
2022/03/15 04:23:05;;;;;;;12.15;8.02;;;4.10;99.90;;;;;;5117366;27;20047;-78
2022/03/15 04:25:31;;;;;;;13.70;7.95;;;4.10;99.90;;;;;;5101261;27;20035;-78
2022/03/15 04:28:00;;;;;;;13.18;8.77;;;4.20;99.90;;;;;;5117984;27;20039;-78
2022/03/15 04:30:33;;;;;;;12.73;8.32;;;4.20;99.90;;;;;;5118425;27;20047;-78
2022/03/15 04:33:01;;;;;;;12.73;7.97;;;4.20;99.90;;;;;;5101001;27;20035;-78
2022/03/15 04:35:29;;;;;;;17.45;11.20;;;4.30;99.90;;;;;;5118289;27;20038;-78
2022/03/15 04:37:55;;;;;;;18.08;12.18;;;4.20;99.90;;;;;;5100234;27;20039;-78
2022/03/15 04:40:21;;;;;;;18.08;12.25;;;4.10;99.90;;;;;;5101050;27;20039;-78
2022/03/15 04:42:48;;;;;;;16.05;10.70;;;4.10;99.90;;;;;;5117796;27;20070;-78
2022/03/15 04:45:15;;;;;;;16.60;12.23;;;4.10;99.90;;;;;;5117854;27;20047;-78
2022/03/15 04:47:41;;;;;;;13.73;9.30;;;4.00;99.90;;;;;;5100804;27;20474;-78
2022/03/15 04:50:07;;;;;;;13.50;9.27;;;3.90;99.90;;;;;;5117739;27;20049;-78
2022/03/15 04:52:34;;;;;;;13.30;8.75;;;3.90;99.90;;;;;;5129377;27;20046;-79
2022/03/15 04:55:01;;;;;;;11.80;8.02;;;4.00;99.90;;;;;;5084272;27;20494;-79
2022/03/15 04:57:26;;;;;;;11.88;8.30;;;4.10;99.90;;;;;;5117517;27;20103;-79
2022/03/15 04:59:52;;;;;;;12.52;8.25;;;4.00;99.90;;;;;;5100665;27;20566;-79
2022/03/15 05:02:18;;;;;;;12.90;8.48;;;4.10;99.90;;;;;;5117380;27;20043;-79
2022/03/15 05:04:44;;;;;;;11.63;7.90;;;4.10;99.90;;;;;;5100701;27;20509;-79
2022/03/15 05:07:09;;;;;;;14.40;9.45;;;4.20;99.90;;;;;;5099253;27;20122;-79
2022/03/15 05:11:05;;;;;;;14.70;9.30;;;4.10;99.90;;;;;;5099883;27;20059;-79
2022/03/15 05:12:21;;;;;;;24.48;16.58;;;4.60;99.90;;;;;;5117181;27;20035;-79
2022/03/15 05:14:47;;;;;;;15.07;10.25;;;4.20;99.90;;;;;;5083850;27;20121;-79
2022/03/15 05:17:13;;;;;;;23.88;15.85;;;4.20;99.90;;;;;;5100194;27;20164;-79
2022/03/15 05:19:38;;;;;;;27.13;17.70;;;4.20;99.90;;;;;;5100177;27;20126;-79
2022/03/15 05:22:04;;;;;;;21.02;13.80;;;4.20;99.90;;;;;;5115401;27;20493;-79
2022/03/15 05:24:30;;;;;;;23.92;15.40;;;4.60;99.90;;;;;;5117149;27;20046;-79
2022/03/15 05:26:57;;;;;;;26.00;17.55;;;4.20;99.90;;;;;;5099918;27;20039;-79
2022/03/15 05:29:24;;;;;;;16.25;11.45;;;4.20;99.90;;;;;;5100010;27;20035;-79
2022/03/15 05:31:49;;;;;;;26.13;16.02;;;4.50;99.90;;;;;;5100052;27;20485;-79
2022/03/15 05:34:16;;;;;;;20.35;14.48;;;4.20;99.90;;;;;;5117307;27;20031;-79
2022/03/15 05:36:42;;;;;;;20.52;14.70;;;4.20;99.90;;;;;;5116140;27;20047;-79
2022/03/15 05:39:07;;;;;;;26.38;17.60;;;4.20;99.90;;;;;;5100273;27;20069;-79
2022/03/15 05:41:35;;;;;;;28.48;19.58;;;4.30;99.90;;;;;;5099598;27;20035;-79
2022/03/15 05:44:00;;;;;;;41.03;25.48;;;4.30;99.90;;;;;;5100340;27;20045;-79
2022/03/15 05:46:26;;;;;;;44.70;26.70;;;4.60;99.90;;;;;;5116274;27;20560;-79
2022/03/15 05:48:52;;;;;;;33.33;22.75;;;4.00;99.90;;;;;;5099507;27;20035;-79
2022/03/15 05:51:19;;;;;;;39.13;26.88;;;4.00;99.90;;;;;;5098915;27;20039;-79
2022/03/15 05:53:45;;;;;;;34.13;22.80;;;4.10;99.90;;;;;;5116721;27;20041;-79
2022/03/15 05:56:11;;;;;;;34.42;22.65;;;4.20;99.90;;;;;;5099762;27;20035;-79
2022/03/15 05:58:37;;;;;;;28.60;20.00;;;4.20;99.90;;;;;;5116350;27;20079;-79
2022/03/15 06:01:03;;;;;;;22.08;15.68;;;4.20;99.90;;;;;;5116279;27;20043;-79
2022/03/15 06:03:28;;;;;;;29.85;19.25;;;4.20;99.90;;;;;;5113629;27;20378;-79
2022/03/15 06:05:54;;;;;;;19.35;13.73;;;4.10;99.90;;;;;;5099395;27;20043;-79
2022/03/15 06:08:20;;;;;;;29.00;18.88;;;4.20;99.90;;;;;;5098137;27;20058;-79
2022/03/15 06:10:48;;;;;;;27.80;18.10;;;4.30;99.90;;;;;;5116661;27;20439;-79
2022/03/15 06:13:14;;;;;;;26.17;18.13;;;4.20;99.90;;;;;;5116391;27;20516;-79
2022/03/15 06:15:39;;;;;;;21.10;14.38;;;4.30;99.90;;;;;;5099226;27;20039;-79
2022/03/15 06:18:05;;;;;;;22.85;16.40;;;4.30;99.90;;;;;;5099350;27;20039;-79
2022/03/15 06:20:31;;;;;;;26.65;17.95;;;4.30;99.90;;;;;;5099248;27;20079;-79
2022/03/15 06:22:59;;;;;;;35.05;22.67;;;4.40;99.90;;;;;;5115129;27;20524;-79
2022/03/15 06:25:25;;;;;;;34.22;22.20;;;4.40;99.90;;;;;;5115979;27;20043;-79
2022/03/15 06:27:51;;;;;;;41.72;27.27;;;4.50;99.90;;;;;;5098934;27;20092;-79
2022/03/15 06:30:20;;;;;;;39.95;27.65;;;4.70;99.90;;;;;;5115674;27;20070;-79
2022/03/15 06:32:46;;;;;;;45.83;31.20;;;4.60;99.90;;;;;;5098600;27;20126;-79
2022/03/15 06:35:13;;;;;;;54.85;34.88;;;4.70;99.90;;;;;;5081924;27;20046;-79
2022/03/15 06:37:47;;;;;;;53.55;32.40;;;4.90;99.90;;;;;;5097972;27;20050;-79
2022/03/15 06:40:16;;;;;;;59.45;36.47;;;4.90;99.90;;;;;;5115776;28;20039;-79
2022/03/15 06:42:42;;;;;;;60.75;38.92;;;4.90;99.90;;;;;;5115662;27;20077;-79
2022/03/15 06:45:10;;;;;;;56.35;36.75;;;5.00;99.90;;;;;;5099130;27;20623;-79
2022/03/15 06:47:36;;;;;;;56.03;35.17;;;5.00;99.90;;;;;;5115475;27;20075;-79
2022/03/15 06:50:04;;;;;;;59.53;38.97;;;5.10;99.90;;;;;;5098723;28;20044;-79
2022/03/15 06:52:30;;;;;;;58.70;37.10;;;5.20;99.90;;;;;;5127507;27;20027;-80
2022/03/15 06:54:55;;;;;;;54.97;36.80;;;5.20;99.90;;;;;;5116637;27;20039;-80
2022/03/15 06:57:22;;;;;;;64.18;39.15;;;5.20;99.90;;;;;;5101977;27;20054;-80
2022/03/15 06:59:47;;;;;;;59.22;37.97;;;5.20;99.90;;;;;;5115940;27;20054;-79
2022/03/15 07:02:13;;;;;;;64.43;40.65;;;5.10;99.90;;;;;;5100484;28;20039;-79
2022/03/15 07:04:40;;;;;;;62.13;39.92;;;5.10;99.90;;;;;;5082098;28;20043;-79
2022/03/15 07:07:06;;;;;;;65.70;39.42;;;5.10;99.90;;;;;;5108944;27;20126;-79
2022/03/15 07:09:32;;;;;;;70.32;41.95;;;5.20;99.90;;;;;;5101480;28;20410;-79
2022/03/15 07:11:58;;;;;;;73.45;42.42;;;5.60;99.90;;;;;;5114719;28;20042;-80
2022/03/15 07:14:24;;;;;;;94.57;47.22;;;5.20;99.90;;;;;;5081704;28;20070;-81
2022/03/15 07:16:49;;;;;;;74.60;43.97;;;5.20;99.90;;;;;;5098137;28;20379;-81
2022/03/15 07:19:15;;;;;;;61.22;37.97;;;5.20;99.90;;;;;;5081689;28;20035;-81
2022/03/15 07:21:41;;;;;;;62.05;38.63;;;5.30;99.90;;;;;;5114281;28;20039;-81
2022/03/15 07:24:06;;;;;;;59.25;38.33;;;5.40;99.90;;;;;;5115235;28;20099;-80
2022/03/15 07:26:32;;;;;;;57.03;37.05;;;5.50;99.90;;;;;;5097992;27;20074;-79
2022/03/15 07:28:58;;;;;;;58.22;38.38;;;6.10;99.90;;;;;;5102271;27;20039;-79
2022/03/15 07:31:24;;;;;;;63.20;40.13;;;5.50;99.90;;;;;;5105336;27;20113;-79
2022/03/15 07:33:50;;;;;;;63.22;38.67;;;5.60;99.90;;;;;;5092747;27;20063;-79
2022/03/15 07:36:18;;;;;;;62.78;41.78;;;5.70;99.90;;;;;;5103726;27;20062;-79
2022/03/15 07:38:44;;;;;;;56.67;37.78;;;6.10;99.90;;;;;;5099787;27;20114;-78
2022/03/15 07:41:09;;;;;;;57.83;38.40;;;6.00;99.90;;;;;;5100243;28;20122;-78
2022/03/15 07:43:35;;;;;;;64.13;41.95;;;5.80;99.90;;;;;;5089558;27;20091;-76
2022/03/15 07:46:01;;;;;;;62.55;42.20;;;5.90;99.90;;;;;;5119138;27;20031;-77
2022/03/15 07:48:27;;;;;;;64.90;42.00;;;5.90;99.90;;;;;;5114937;27;20053;-79
2022/03/15 07:50:52;;;;;;;59.83;39.58;;;6.00;99.90;;;;;;5099083;27;20062;-79
2022/03/15 07:53:19;;;;;;;54.00;38.13;;;6.00;99.90;;;;;;5131070;27;20035;-79
2022/03/15 07:55:45;;;;;;;56.90;40.72;;;6.10;99.90;;;;;;5133686;27;20070;-79
2022/03/15 07:58:11;;;;;;;57.80;38.97;;;6.10;99.90;;;;;;5103084;27;20065;-78
2022/03/15 08:00:37;;;;;;;60.75;41.05;;;6.20;99.90;;;;;;5118668;27;20482;-78
2022/03/15 08:03:02;;;;;;;60.67;39.92;;;6.20;99.90;;;;;;5114502;27;20102;-78
2022/03/15 08:05:28;;;;;;;55.05;38.08;;;6.20;99.90;;;;;;5087041;27;20034;-79
2022/03/15 08:07:55;;;;;;;60.22;39.42;;;6.30;99.90;;;;;;5119824;27;20047;-79
2022/03/15 08:10:22;;;;;;;57.25;38.25;;;6.30;99.90;;;;;;5119535;27;20486;-79
2022/03/15 08:12:48;;;;;;;59.72;38.97;;;6.60;99.90;;;;;;5101842;27;20066;-78
2022/03/15 08:15:13;;;;;;;55.05;37.67;;;6.30;99.90;;;;;;5117140;27;20043;-79
2022/03/15 08:17:41;;;;;;;58.90;39.30;;;6.40;99.90;;;;;;5089412;27;20436;-79
2022/03/15 08:20:08;;;;;;;55.97;39.45;;;6.40;99.90;;;;;;5099888;27;20117;-79
2022/03/15 08:22:35;;;;;;;53.58;38.75;;;6.40;99.90;;;;;;5094390;27;20130;-79
2022/03/15 08:25:02;;;;;;;58.15;39.05;;;6.50;99.90;;;;;;5116524;27;20039;-79
2022/03/15 08:27:30;;;;;;;57.47;39.60;;;6.50;99.90;;;;;;5106069;27;20039;-79
2022/03/15 08:29:55;;;;;;;58.65;38.15;;;6.50;99.90;;;;;;5117898;27;20038;-79
2022/03/15 08:32:21;;;;;;;54.55;38.28;;;6.60;99.90;;;;;;5116926;27;20027;-79
2022/03/15 08:34:47;;;;;;;56.47;39.47;;;6.60;99.90;;;;;;5121794;27;20183;-78
2022/03/15 08:37:13;;;;;;;54.15;37.75;;;6.60;99.90;;;;;;5093091;27;20393;-79
2022/03/15 08:39:39;;;;;;;52.70;38.90;;;6.70;99.90;;;;;;5094419;27;20408;-78
2022/03/15 08:42:05;;;;;;;56.70;38.97;;;6.70;99.90;;;;;;5116506;27;20122;-78
2022/03/15 08:44:31;;;;;;;55.67;38.78;;;6.80;99.90;;;;;;5117151;27;20039;-80
2022/03/15 08:46:56;;;;;;;55.22;39.45;;;6.80;99.90;;;;;;5099067;27;20155;-79
2022/03/15 08:49:22;;;;;;;49.55;36.83;;;6.80;99.90;;;;;;5099381;27;20059;-78
2022/03/15 08:51:49;;;;;;;52.72;38.50;;;6.90;99.90;;;;;;5117845;27;20088;-78
2022/03/15 08:54:16;;;;;;;60.83;41.13;;;6.90;99.90;;;;;;5119395;27;20046;-78
2022/03/15 08:56:42;;;;;;;50.92;35.60;;;6.90;99.90;;;;;;5115832;27;20547;-78
2022/03/15 08:59:12;;;;;;;54.72;38.88;;;6.90;99.90;;;;;;5100920;27;20084;-78
2022/03/15 09:01:38;;;;;;;49.42;36.65;;;6.90;99.90;;;;;;5099569;27;20428;-78
2022/03/15 09:04:04;;;;;;;56.90;41.47;;;7.00;99.90;;;;;;5103219;27;20027;-79
2022/03/15 09:06:30;;;;;;;53.65;38.75;;;6.90;99.90;;;;;;5098592;27;20043;-78
2022/03/15 09:08:57;;;;;;;48.20;35.67;;;7.00;99.90;;;;;;5116070;27;20529;-79
2022/03/15 09:11:22;;;;;;;49.00;36.08;;;7.00;99.90;;;;;;5098761;27;20518;-78
2022/03/15 09:13:48;;;;;;;49.97;35.67;;;7.00;99.90;;;;;;5099234;27;20063;-78
2022/03/15 09:16:14;;;;;;;49.17;34.88;;;7.20;99.90;;;;;;5098922;27;20513;-78
2022/03/15 09:18:39;;;;;;;46.85;34.53;;;7.30;99.90;;;;;;5098790;27;20046;-78
2022/03/15 09:21:06;;;;;;;45.45;34.35;;;7.30;99.90;;;;;;5084643;27;20462;-78
2022/03/15 09:23:33;;;;;;;46.38;35.05;;;7.40;99.90;;;;;;5097297;27;20043;-78
2022/03/15 09:25:59;;;;;;;47.95;34.17;;;7.30;99.90;;;;;;5123455;27;20039;-78
2022/03/15 09:28:25;;;;;;;47.63;35.47;;;7.40;99.90;;;;;;5115515;27;20386;-79
2022/03/15 09:30:50;;;;;;;44.40;33.67;;;7.40;99.90;;;;;;5098589;27;20095;-78
2022/03/15 09:33:16;;;;;;;46.95;34.33;;;7.50;99.90;;;;;;5097481;27;20035;-78
2022/03/15 09:35:42;;;;;;;45.88;34.42;;;7.50;99.90;;;;;;5116177;27;20436;-78
2022/03/15 09:38:08;;;;;;;45.63;33.67;;;7.70;99.90;;;;;;5089393;27;20074;-79
2022/03/15 09:40:36;;;;;;;47.20;36.20;;;7.70;99.90;;;;;;5083537;27;20506;-79
2022/03/15 09:43:08;;;;;;;45.15;33.40;;;7.80;99.90;;;;;;5114864;27;20046;-83
2022/03/15 09:45:35;;;;;;;44.10;33.60;;;7.80;99.90;;;;;;5099025;27;20042;-84
2022/03/15 09:48:11;;;;;;;43.67;33.22;;;7.80;99.90;;;;;;5099297;27;20509;-78
2022/03/15 09:50:39;;;;;;;45.40;33.97;;;7.90;99.90;;;;;;5115591;27;20039;-78
2022/03/15 09:53:05;;;;;;;45.38;35.92;;;7.90;99.90;;;;;;5114432;27;20069;-78
2022/03/15 09:55:31;;;;;;;43.40;35.03;;;7.90;99.90;;;;;;5117698;27;20443;-78
2022/03/15 09:57:57;;;;;;;41.42;32.95;;;8.00;99.90;;;;;;5113981;27;20092;-77
2022/03/15 10:00:24;;;;;;;47.38;34.90;;;8.00;99.90;;;;;;5081159;27;20099;-77
2022/03/15 10:02:50;;;;;;;42.08;33.25;;;8.10;99.90;;;;;;5101219;27;20118;-77
2022/03/15 10:05:16;;;;;;;44.42;34.80;;;8.20;99.90;;;;;;5098255;27;20047;-79
2022/03/15 10:07:42;;;;;;;42.58;34.58;;;8.10;99.90;;;;;;5096439;27;20042;-79
2022/03/15 10:10:11;;;;;;;49.10;35.22;;;8.20;99.90;;;;;;5114818;27;20069;-78
2022/03/15 10:12:37;;;;;;;39.85;33.35;;;8.20;99.90;;;;;;5100393;27;20122;-78
2022/03/15 10:15:19;;;;;;;41.40;32.00;;;8.30;99.90;;;;;;5125507;27;20383;-81
2022/03/15 10:17:53;;;;;;;44.03;33.83;;;8.40;99.90;;;;;;5119144;27;20042;-79
2022/03/15 10:20:21;;;;;;;41.83;33.83;;;8.40;99.90;;;;;;5098326;27;20635;-79
2022/03/15 10:23:00;;;;;;;39.88;34.25;;;8.40;99.90;;;;;;5118849;27;20131;-79
2022/03/15 10:25:27;;;;;;;42.17;33.67;;;8.50;99.90;;;;;;5116800;27;20107;-79
2022/03/15 10:27:58;;;;;;;39.67;32.42;;;8.50;99.90;;;;;;5114492;27;20043;-78
2022/03/15 10:30:26;;;;;;;39.93;32.47;;;8.60;99.90;;;;;;5114798;27;20043;-78
2022/03/15 10:32:53;;;;;;;42.28;32.25;;;8.60;99.90;;;;;;5113891;27;20031;-78
2022/03/15 10:35:25;;;;;;;43.03;33.10;;;8.60;99.90;;;;;;5115100;27;20493;-78
2022/03/15 10:37:53;;;;;;;39.60;31.33;;;8.80;99.90;;;;;;5113998;27;20046;-79
2022/03/15 10:40:30;;;;;;;40.10;32.30;;;8.70;99.90;;;;;;5081634;27;20043;-78
2022/03/15 10:43:06;;;;;;;42.10;32.13;;;8.70;99.90;;;;;;5117326;27;20406;-78
2022/03/15 10:45:34;;;;;;;37.78;31.17;;;8.70;99.90;;;;;;5098193;27;20075;-79
2022/03/15 10:48:02;;;;;;;39.83;32.33;;;8.80;99.90;;;;;;5093079;27;20441;-78
2022/03/15 10:50:30;;;;;;;40.42;32.05;;;8.80;99.90;;;;;;5097640;28;20486;-79
2022/03/15 10:52:56;;;;;;;41.33;33.13;;;8.80;99.90;;;;;;5098080;27;20051;-78
2022/03/15 10:55:26;;;;;;;38.92;31.17;;;8.80;99.90;;;;;;5117283;27;20509;-78
2022/03/15 10:58:02;;;;;;;38.72;31.85;;;8.90;99.90;;;;;;5097310;27;20043;-78
2022/03/15 11:00:31;;;;;;;37.58;31.00;;;8.90;99.90;;;;;;5111151;27;20145;-78
2022/03/15 11:02:58;;;;;;;35.15;30.15;;;9.00;99.90;;;;;;5117117;27;20138;-78
2022/03/15 11:05:35;;;;;;;36.42;30.75;;;9.20;99.90;;;;;;5096731;27;20039;-78
2022/03/15 11:08:10;;;;;;;37.30;30.92;;;9.20;99.90;;;;;;5095905;27;20043;-78
2022/03/15 11:10:38;;;;;;;36.90;30.63;;;9.30;99.90;;;;;;5115670;27;20046;-78
2022/03/15 11:13:11;;;;;;;37.05;29.13;;;9.30;99.90;;;;;;5078012;27;20123;-78
2022/03/15 11:15:48;;;;;;;39.53;32.97;;;9.30;99.90;;;;;;5118211;27;20054;-78
2022/03/15 11:18:17;;;;;;;33.90;27.20;;;9.40;99.90;;;;;;5113711;27;20043;-78
2022/03/15 11:20:49;;;;;;;31.50;26.77;;;9.60;99.90;;;;;;5103933;27;20046;-78
2022/03/15 11:23:17;;;;;;;36.42;27.20;;;9.60;99.90;;;;;;5119359;27;20039;-78
2022/03/15 11:25:48;;;;;;;36.75;28.58;;;9.70;99.90;;;;;;5100989;27;20046;-78
2022/03/15 11:28:20;;;;;;;35.35;26.45;;;9.80;99.90;;;;;;5118161;27;20039;-79
2022/03/15 11:30:46;;;;;;;31.90;26.38;;;9.90;99.90;;;;;;5102420;27;20050;-79
2022/03/15 11:33:12;;;;;;;35.03;25.88;;;9.90;99.90;;;;;;5099889;27;20043;-78
2022/03/15 11:35:40;;;;;;;32.15;25.77;;;9.90;99.90;;;;;;5083888;27;20049;-78
2022/03/15 11:38:09;;;;;;;33.85;26.88;;;10.00;99.90;;;;;;5100498;27;20398;-80
2022/03/15 11:40:35;;;;;;;33.65;24.92;;;10.00;99.90;;;;;;5107929;27;20065;-80
2022/03/15 11:43:23;;;;;;;30.58;24.05;;;10.10;99.90;;;;;;5128553;27;20039;-80
2022/03/15 11:46:18;;;;;;;31.45;25.73;;;10.20;99.90;;;;;;5101210;27;20478;-81
2022/03/15 11:49:09;;;;;;;31.42;25.17;;;10.20;99.90;;;;;;5117275;27;20043;-81
2022/03/15 11:52:09;;;;;;;33.10;24.20;;;10.40;99.90;;;;;;5099530;27;20777;-81
2022/03/15 11:55:02;;;;;;;31.63;24.08;;;10.50;99.90;;;;;;5119974;27;20043;-81
2022/03/15 11:57:31;;;;;;;29.15;23.95;;;10.60;99.90;;;;;;5104929;27;20505;-81
2022/03/15 11:59:57;;;;;;;31.92;24.50;;;10.70;99.90;;;;;;5106667;27;20467;-81
2022/03/15 12:02:29;;;;;;;34.17;26.42;;;10.80;99.90;;;;;;5121989;27;20039;-78
2022/03/15 12:04:57;;;;;;;30.52;23.52;;;10.80;99.90;;;;;;5116712;27;20478;-78
2022/03/15 12:07:45;;;;;;;30.45;23.02;;;10.90;99.90;;;;;;5102867;27;20478;-77
2022/03/15 12:10:11;;;;;;;28.27;20.73;;;10.90;99.90;;;;;;5108160;27;20086;-78
2022/03/15 12:12:41;;;;;;;29.20;22.13;;;11.00;99.90;;;;;;5108505;27;20435;-78
2022/03/15 12:15:15;;;;;;;30.80;23.70;;;11.10;99.90;;;;;;5116387;27;20031;-78
2022/03/15 12:17:42;;;;;;;27.95;21.67;;;11.00;99.90;;;;;;5084447;27;20043;-78
2022/03/15 12:20:16;;;;;;;27.60;21.38;;;11.10;99.90;;;;;;5114820;27;20049;-78
2022/03/15 12:22:43;;;;;;;31.75;21.98;;;11.10;99.90;;;;;;5099437;27;20035;-78
2022/03/15 12:25:17;;;;;;;27.63;21.00;;;11.20;99.90;;;;;;5118754;27;20063;-78
2022/03/15 12:27:47;;;;;;;25.05;20.83;;;11.30;99.90;;;;;;5091627;27;20043;-78
2022/03/15 12:30:26;;;;;;;26.67;20.73;;;11.30;99.90;;;;;;5105722;27;20075;-80
2022/03/15 12:32:53;;;;;;;26.35;20.15;;;11.30;99.90;;;;;;5102504;27;20070;-78
2022/03/15 12:35:27;;;;;;;28.05;21.27;;;11.30;99.90;;;;;;5104098;27;20398;-79
2022/03/15 12:38:08;;;;;;;25.80;20.55;;;11.30;99.90;;;;;;5119559;27;20039;-78
2022/03/15 12:40:34;;;;;;;23.92;19.55;;;11.40;99.90;;;;;;5118237;27;20094;-78